sensor_id;sensor_type;location;lat;lon;timestamp;P1;durP1;ratioP1;P2;durP2;ratioP2
64199;SDS011;50516;52.272;5.136;2023-05-07T00:00:42;31.73;;;25.33;;
64199;SDS011;50516;52.272;5.136;2023-05-07T00:03:07;31.88;;;24.50;;
64199;SDS011;50516;52.272;5.136;2023-05-07T00:05:33;33.92;;;25.83;;
64199;SDS011;50516;52.272;5.136;2023-05-07T00:07:58;31.55;;;24.42;;
64199;SDS011;50516;52.272;5.136;2023-05-07T00:10:23;28.50;;;24.08;;
64199;SDS011;50516;52.272;5.136;2023-05-07T00:12:50;31.75;;;23.70;;
64199;SDS011;50516;52.272;5.136;2023-05-07T00:15:15;32.28;;;23.27;;
64199;SDS011;50516;52.272;5.136;2023-05-07T00:17:41;30.95;;;22.75;;
64199;SDS011;50516;52.272;5.136;2023-05-07T00:20:06;30.05;;;23.73;;
64199;SDS011;50516;52.272;5.136;2023-05-07T00:22:32;29.10;;;22.85;;
64199;SDS011;50516;52.272;5.136;2023-05-07T00:24:57;26.55;;;21.38;;
64199;SDS011;50516;52.272;5.136;2023-05-07T00:27:24;31.90;;;22.30;;
64199;SDS011;50516;52.272;5.136;2023-05-07T00:29:50;25.50;;;21.40;;
64199;SDS011;50516;52.272;5.136;2023-05-07T00:32:15;27.77;;;22.63;;
64199;SDS011;50516;52.272;5.136;2023-05-07T00:34:40;29.13;;;21.58;;
64199;SDS011;50516;52.272;5.136;2023-05-07T00:37:06;26.88;;;20.88;;
64199;SDS011;50516;52.272;5.136;2023-05-07T00:39:34;26.17;;;21.35;;
64199;SDS011;50516;52.272;5.136;2023-05-07T00:42:00;25.50;;;20.60;;
64199;SDS011;50516;52.272;5.136;2023-05-07T00:44:25;25.83;;;20.10;;
64199;SDS011;50516;52.272;5.136;2023-05-07T00:46:51;24.85;;;19.38;;
64199;SDS011;50516;52.272;5.136;2023-05-07T00:49:16;23.08;;;19.02;;
64199;SDS011;50516;52.272;5.136;2023-05-07T00:51:43;23.25;;;18.63;;
64199;SDS011;50516;52.272;5.136;2023-05-07T00:54:09;23.40;;;18.80;;
64199;SDS011;50516;52.272;5.136;2023-05-07T00:56:35;19.45;;;16.83;;
64199;SDS011;50516;52.272;5.136;2023-05-07T00:59:01;19.85;;;17.75;;
64199;SDS011;50516;52.272;5.136;2023-05-07T01:01:27;20.58;;;17.33;;
64199;SDS011;50516;52.272;5.136;2023-05-07T01:03:53;19.88;;;16.02;;
64199;SDS011;50516;52.272;5.136;2023-05-07T01:06:18;16.85;;;15.00;;
64199;SDS011;50516;52.272;5.136;2023-05-07T01:08:46;23.23;;;15.70;;
64199;SDS011;50516;52.272;5.136;2023-05-07T01:11:12;22.65;;;16.15;;
64199;SDS011;50516;52.272;5.136;2023-05-07T01:13:38;21.00;;;16.05;;
64199;SDS011;50516;52.272;5.136;2023-05-07T01:16:04;20.33;;;14.90;;
64199;SDS011;50516;52.272;5.136;2023-05-07T01:18:30;16.20;;;14.48;;
64199;SDS011;50516;52.272;5.136;2023-05-07T01:20:56;16.92;;;14.13;;
64199;SDS011;50516;52.272;5.136;2023-05-07T01:23:23;18.08;;;15.13;;
64199;SDS011;50516;52.272;5.136;2023-05-07T01:25:53;15.73;;;13.48;;
64199;SDS011;50516;52.272;5.136;2023-05-07T01:28:19;18.30;;;14.20;;
64199;SDS011;50516;52.272;5.136;2023-05-07T01:30:46;16.58;;;14.00;;
64199;SDS011;50516;52.272;5.136;2023-05-07T01:33:18;15.80;;;14.02;;
64199;SDS011;50516;52.272;5.136;2023-05-07T01:35:50;15.23;;;12.80;;
64199;SDS011;50516;52.272;5.136;2023-05-07T01:38:18;14.10;;;12.35;;
64199;SDS011;50516;52.272;5.136;2023-05-07T01:40:43;16.52;;;13.63;;
64199;SDS011;50516;52.272;5.136;2023-05-07T01:43:09;16.55;;;13.05;;
64199;SDS011;50516;52.272;5.136;2023-05-07T01:45:34;18.85;;;14.30;;
64199;SDS011;50516;52.272;5.136;2023-05-07T01:48:00;15.38;;;11.95;;
64199;SDS011;50516;52.272;5.136;2023-05-07T01:50:26;16.33;;;13.15;;
64199;SDS011;50516;52.272;5.136;2023-05-07T01:52:52;16.92;;;12.65;;
64199;SDS011;50516;52.272;5.136;2023-05-07T01:55:18;15.43;;;12.15;;
64199;SDS011;50516;52.272;5.136;2023-05-07T01:57:44;16.42;;;12.18;;
64199;SDS011;50516;52.272;5.136;2023-05-07T02:00:09;15.75;;;13.02;;
64199;SDS011;50516;52.272;5.136;2023-05-07T02:02:35;15.95;;;12.52;;
64199;SDS011;50516;52.272;5.136;2023-05-07T02:05:01;16.52;;;13.00;;
64199;SDS011;50516;52.272;5.136;2023-05-07T02:07:26;14.68;;;11.95;;
64199;SDS011;50516;52.272;5.136;2023-05-07T02:09:52;15.68;;;12.77;;
64199;SDS011;50516;52.272;5.136;2023-05-07T02:12:18;17.95;;;12.07;;
64199;SDS011;50516;52.272;5.136;2023-05-07T02:14:43;14.80;;;12.57;;
64199;SDS011;50516;52.272;5.136;2023-05-07T02:17:08;14.50;;;12.07;;
64199;SDS011;50516;52.272;5.136;2023-05-07T02:19:33;17.40;;;12.73;;
64199;SDS011;50516;52.272;5.136;2023-05-07T02:21:59;14.68;;;11.85;;
64199;SDS011;50516;52.272;5.136;2023-05-07T02:24:24;16.38;;;12.38;;
64199;SDS011;50516;52.272;5.136;2023-05-07T02:26:49;16.42;;;12.07;;
64199;SDS011;50516;52.272;5.136;2023-05-07T02:29:15;13.80;;;11.38;;
64199;SDS011;50516;52.272;5.136;2023-05-07T02:31:40;13.18;;;10.95;;
64199;SDS011;50516;52.272;5.136;2023-05-07T02:34:05;17.70;;;12.13;;
64199;SDS011;50516;52.272;5.136;2023-05-07T02:36:31;13.48;;;11.02;;
64199;SDS011;50516;52.272;5.136;2023-05-07T02:38:56;14.93;;;11.35;;
64199;SDS011;50516;52.272;5.136;2023-05-07T02:41:21;16.05;;;11.48;;
64199;SDS011;50516;52.272;5.136;2023-05-07T02:43:47;13.45;;;10.80;;
64199;SDS011;50516;52.272;5.136;2023-05-07T02:46:12;14.40;;;11.70;;
64199;SDS011;50516;52.272;5.136;2023-05-07T02:48:37;15.70;;;11.43;;
64199;SDS011;50516;52.272;5.136;2023-05-07T02:51:03;13.43;;;10.50;;
64199;SDS011;50516;52.272;5.136;2023-05-07T02:53:29;14.15;;;10.63;;
64199;SDS011;50516;52.272;5.136;2023-05-07T02:55:57;16.35;;;11.35;;
64199;SDS011;50516;52.272;5.136;2023-05-07T02:58:24;11.40;;;9.98;;
64199;SDS011;50516;52.272;5.136;2023-05-07T03:00:50;17.33;;;11.38;;
64199;SDS011;50516;52.272;5.136;2023-05-07T03:03:15;13.18;;;10.95;;
64199;SDS011;50516;52.272;5.136;2023-05-07T03:05:41;12.85;;;10.40;;
64199;SDS011;50516;52.272;5.136;2023-05-07T03:08:07;15.82;;;10.85;;
64199;SDS011;50516;52.272;5.136;2023-05-07T03:10:32;13.63;;;10.55;;
64199;SDS011;50516;52.272;5.136;2023-05-07T03:12:58;13.00;;;10.82;;
64199;SDS011;50516;52.272;5.136;2023-05-07T03:15:23;14.40;;;11.80;;
64199;SDS011;50516;52.272;5.136;2023-05-07T03:17:48;13.52;;;11.10;;
64199;SDS011;50516;52.272;5.136;2023-05-07T03:20:14;14.15;;;11.13;;
64199;SDS011;50516;52.272;5.136;2023-05-07T03:22:39;15.52;;;11.38;;
64199;SDS011;50516;52.272;5.136;2023-05-07T03:25:05;14.57;;;12.07;;
64199;SDS011;50516;52.272;5.136;2023-05-07T03:27:31;12.45;;;10.85;;
64199;SDS011;50516;52.272;5.136;2023-05-07T03:29:57;18.40;;;11.73;;
64199;SDS011;50516;52.272;5.136;2023-05-07T03:32:22;14.40;;;11.30;;
64199;SDS011;50516;52.272;5.136;2023-05-07T03:34:47;16.55;;;10.70;;
64199;SDS011;50516;52.272;5.136;2023-05-07T03:37:13;15.18;;;11.18;;
64199;SDS011;50516;52.272;5.136;2023-05-07T03:39:38;14.63;;;10.90;;
64199;SDS011;50516;52.272;5.136;2023-05-07T03:42:03;19.40;;;12.10;;
64199;SDS011;50516;52.272;5.136;2023-05-07T03:44:28;13.98;;;12.48;;
64199;SDS011;50516;52.272;5.136;2023-05-07T03:46:54;13.90;;;11.27;;
64199;SDS011;50516;52.272;5.136;2023-05-07T03:49:20;12.73;;;11.38;;
64199;SDS011;50516;52.272;5.136;2023-05-07T03:51:45;14.07;;;11.65;;
64199;SDS011;50516;52.272;5.136;2023-05-07T03:54:11;15.77;;;11.23;;
64199;SDS011;50516;52.272;5.136;2023-05-07T03:56:36;12.35;;;10.63;;
64199;SDS011;50516;52.272;5.136;2023-05-07T03:59:01;15.35;;;12.32;;
64199;SDS011;50516;52.272;5.136;2023-05-07T04:01:26;13.68;;;12.13;;
64199;SDS011;50516;52.272;5.136;2023-05-07T04:03:52;18.13;;;11.35;;
64199;SDS011;50516;52.272;5.136;2023-05-07T04:06:17;14.65;;;12.55;;
64199;SDS011;50516;52.272;5.136;2023-05-07T04:08:43;15.93;;;13.32;;
64199;SDS011;50516;52.272;5.136;2023-05-07T04:11:08;14.27;;;12.77;;
64199;SDS011;50516;52.272;5.136;2023-05-07T04:13:34;17.63;;;13.35;;
64199;SDS011;50516;52.272;5.136;2023-05-07T04:16:00;14.88;;;12.88;;
64199;SDS011;50516;52.272;5.136;2023-05-07T04:18:27;14.45;;;12.02;;
64199;SDS011;50516;52.272;5.136;2023-05-07T04:20:52;16.52;;;13.07;;
64199;SDS011;50516;52.272;5.136;2023-05-07T04:23:18;14.60;;;12.15;;
64199;SDS011;50516;52.272;5.136;2023-05-07T04:25:43;17.50;;;12.93;;
64199;SDS011;50516;52.272;5.136;2023-05-07T04:28:08;14.27;;;12.15;;
64199;SDS011;50516;52.272;5.136;2023-05-07T04:30:33;14.57;;;12.75;;
64199;SDS011;50516;52.272;5.136;2023-05-07T04:32:59;16.27;;;12.68;;
64199;SDS011;50516;52.272;5.136;2023-05-07T04:35:24;17.95;;;12.77;;
64199;SDS011;50516;52.272;5.136;2023-05-07T04:37:49;17.33;;;12.52;;
64199;SDS011;50516;52.272;5.136;2023-05-07T04:40:15;16.38;;;13.10;;
64199;SDS011;50516;52.272;5.136;2023-05-07T04:42:41;14.45;;;12.88;;
64199;SDS011;50516;52.272;5.136;2023-05-07T04:45:06;15.10;;;12.23;;
64199;SDS011;50516;52.272;5.136;2023-05-07T04:47:33;14.02;;;12.07;;
64199;SDS011;50516;52.272;5.136;2023-05-07T04:49:58;15.93;;;12.48;;
64199;SDS011;50516;52.272;5.136;2023-05-07T04:52:24;15.68;;;13.52;;
64199;SDS011;50516;52.272;5.136;2023-05-07T04:54:49;14.85;;;12.80;;
64199;SDS011;50516;52.272;5.136;2023-05-07T04:57:14;15.00;;;13.48;;
64199;SDS011;50516;52.272;5.136;2023-05-07T04:59:41;13.75;;;12.35;;
64199;SDS011;50516;52.272;5.136;2023-05-07T05:02:07;13.95;;;12.07;;
64199;SDS011;50516;52.272;5.136;2023-05-07T05:04:32;15.38;;;12.32;;
64199;SDS011;50516;52.272;5.136;2023-05-07T05:06:57;15.35;;;13.00;;
64199;SDS011;50516;52.272;5.136;2023-05-07T05:09:23;14.57;;;12.52;;
64199;SDS011;50516;52.272;5.136;2023-05-07T05:11:48;14.48;;;11.85;;
64199;SDS011;50516;52.272;5.136;2023-05-07T05:14:13;15.50;;;12.68;;
64199;SDS011;50516;52.272;5.136;2023-05-07T05:16:38;15.10;;;12.55;;
64199;SDS011;50516;52.272;5.136;2023-05-07T05:19:04;18.88;;;12.63;;
64199;SDS011;50516;52.272;5.136;2023-05-07T05:21:30;15.18;;;11.57;;
64199;SDS011;50516;52.272;5.136;2023-05-07T05:23:56;14.88;;;12.85;;
64199;SDS011;50516;52.272;5.136;2023-05-07T05:26:21;15.02;;;12.52;;
64199;SDS011;50516;52.272;5.136;2023-05-07T05:28:47;17.17;;;12.63;;
64199;SDS011;50516;52.272;5.136;2023-05-07T05:31:12;14.25;;;12.75;;
64199;SDS011;50516;52.272;5.136;2023-05-07T05:33:37;20.55;;;13.13;;
64199;SDS011;50516;52.272;5.136;2023-05-07T05:36:03;16.55;;;12.90;;
64199;SDS011;50516;52.272;5.136;2023-05-07T05:38:28;17.25;;;12.13;;
64199;SDS011;50516;52.272;5.136;2023-05-07T05:40:53;13.68;;;12.18;;
64199;SDS011;50516;52.272;5.136;2023-05-07T05:43:19;16.42;;;13.18;;
64199;SDS011;50516;52.272;5.136;2023-05-07T05:45:44;18.77;;;13.63;;
64199;SDS011;50516;52.272;5.136;2023-05-07T05:48:09;16.63;;;13.82;;
64199;SDS011;50516;52.272;5.136;2023-05-07T05:50:35;19.45;;;13.43;;
64199;SDS011;50516;52.272;5.136;2023-05-07T05:53:03;18.35;;;14.13;;
64199;SDS011;50516;52.272;5.136;2023-05-07T05:55:28;17.30;;;14.23;;
64199;SDS011;50516;52.272;5.136;2023-05-07T05:57:54;18.05;;;15.07;;
64199;SDS011;50516;52.272;5.136;2023-05-07T06:00:19;17.33;;;15.13;;
64199;SDS011;50516;52.272;5.136;2023-05-07T06:02:47;17.27;;;14.60;;
64199;SDS011;50516;52.272;5.136;2023-05-07T06:05:13;16.38;;;14.65;;
64199;SDS011;50516;52.272;5.136;2023-05-07T06:07:38;16.30;;;14.52;;
64199;SDS011;50516;52.272;5.136;2023-05-07T06:10:03;17.58;;;14.57;;
64199;SDS011;50516;52.272;5.136;2023-05-07T06:12:29;19.75;;;14.80;;
64199;SDS011;50516;52.272;5.136;2023-05-07T06:14:54;16.35;;;14.63;;
64199;SDS011;50516;52.272;5.136;2023-05-07T06:17:20;18.10;;;14.93;;
64199;SDS011;50516;52.272;5.136;2023-05-07T06:19:45;20.65;;;15.73;;
64199;SDS011;50516;52.272;5.136;2023-05-07T06:22:10;18.13;;;14.25;;
64199;SDS011;50516;52.272;5.136;2023-05-07T06:24:36;17.90;;;15.30;;
64199;SDS011;50516;52.272;5.136;2023-05-07T06:27:01;22.13;;;16.00;;
64199;SDS011;50516;52.272;5.136;2023-05-07T06:29:26;18.83;;;16.42;;
64199;SDS011;50516;52.272;5.136;2023-05-07T06:31:52;17.30;;;15.43;;
64199;SDS011;50516;52.272;5.136;2023-05-07T06:34:18;20.25;;;16.30;;
64199;SDS011;50516;52.272;5.136;2023-05-07T06:36:43;17.80;;;15.02;;
64199;SDS011;50516;52.272;5.136;2023-05-07T06:39:09;19.42;;;15.32;;
64199;SDS011;50516;52.272;5.136;2023-05-07T06:41:34;18.27;;;15.57;;
64199;SDS011;50516;52.272;5.136;2023-05-07T06:44:00;20.40;;;15.65;;
64199;SDS011;50516;52.272;5.136;2023-05-07T06:46:27;19.05;;;15.98;;
64199;SDS011;50516;52.272;5.136;2023-05-07T06:48:52;20.48;;;16.35;;
64199;SDS011;50516;52.272;5.136;2023-05-07T06:51:18;18.17;;;15.80;;
64199;SDS011;50516;52.272;5.136;2023-05-07T06:53:43;21.10;;;15.27;;
64199;SDS011;50516;52.272;5.136;2023-05-07T06:56:08;20.17;;;15.75;;
64199;SDS011;50516;52.272;5.136;2023-05-07T06:58:33;21.15;;;16.98;;
64199;SDS011;50516;52.272;5.136;2023-05-07T07:00:59;17.63;;;15.82;;
64199;SDS011;50516;52.272;5.136;2023-05-07T07:03:24;20.13;;;16.60;;
64199;SDS011;50516;52.272;5.136;2023-05-07T07:05:53;18.80;;;16.58;;
64199;SDS011;50516;52.272;5.136;2023-05-07T07:08:19;25.55;;;17.00;;
64199;SDS011;50516;52.272;5.136;2023-05-07T07:10:46;19.73;;;16.23;;
64199;SDS011;50516;52.272;5.136;2023-05-07T07:13:11;18.75;;;16.80;;
64199;SDS011;50516;52.272;5.136;2023-05-07T07:15:37;17.58;;;15.55;;
64199;SDS011;50516;52.272;5.136;2023-05-07T07:18:02;17.30;;;15.50;;
64199;SDS011;50516;52.272;5.136;2023-05-07T07:20:27;17.95;;;15.27;;
64199;SDS011;50516;52.272;5.136;2023-05-07T07:22:53;20.77;;;15.13;;
64199;SDS011;50516;52.272;5.136;2023-05-07T07:25:18;16.55;;;14.73;;
64199;SDS011;50516;52.272;5.136;2023-05-07T07:27:44;17.33;;;15.02;;
64199;SDS011;50516;52.272;5.136;2023-05-07T07:30:10;17.98;;;15.40;;
64199;SDS011;50516;52.272;5.136;2023-05-07T07:32:35;16.67;;;14.90;;
64199;SDS011;50516;52.272;5.136;2023-05-07T07:35:00;17.08;;;15.20;;
64199;SDS011;50516;52.272;5.136;2023-05-07T07:37:26;18.50;;;15.70;;
64199;SDS011;50516;52.272;5.136;2023-05-07T07:39:52;17.95;;;15.98;;
64199;SDS011;50516;52.272;5.136;2023-05-07T07:42:17;21.35;;;17.77;;
64199;SDS011;50516;52.272;5.136;2023-05-07T07:44:43;15.88;;;14.35;;
64199;SDS011;50516;52.272;5.136;2023-05-07T07:47:08;15.98;;;14.38;;
64199;SDS011;50516;52.272;5.136;2023-05-07T07:49:33;20.02;;;16.83;;
64199;SDS011;50516;52.272;5.136;2023-05-07T07:51:59;19.40;;;15.75;;
64199;SDS011;50516;52.272;5.136;2023-05-07T07:54:24;18.35;;;15.10;;
64199;SDS011;50516;52.272;5.136;2023-05-07T07:56:50;18.05;;;16.15;;
64199;SDS011;50516;52.272;5.136;2023-05-07T07:59:15;16.77;;;15.07;;
64199;SDS011;50516;52.272;5.136;2023-05-07T08:01:43;19.52;;;15.20;;
64199;SDS011;50516;52.272;5.136;2023-05-07T08:04:09;17.50;;;15.80;;
64199;SDS011;50516;52.272;5.136;2023-05-07T08:06:35;17.33;;;15.63;;
64199;SDS011;50516;52.272;5.136;2023-05-07T08:09:00;17.48;;;14.43;;
64199;SDS011;50516;52.272;5.136;2023-05-07T08:11:25;17.83;;;13.95;;
64199;SDS011;50516;52.272;5.136;2023-05-07T08:13:51;17.83;;;16.02;;
64199;SDS011;50516;52.272;5.136;2023-05-07T08:16:16;17.95;;;15.48;;
64199;SDS011;50516;52.272;5.136;2023-05-07T08:18:41;19.65;;;16.25;;
64199;SDS011;50516;52.272;5.136;2023-05-07T08:21:07;17.63;;;15.85;;
64199;SDS011;50516;52.272;5.136;2023-05-07T08:23:32;17.38;;;15.57;;
64199;SDS011;50516;52.272;5.136;2023-05-07T08:25:59;16.73;;;14.93;;
64199;SDS011;50516;52.272;5.136;2023-05-07T08:28:25;18.73;;;15.48;;
64199;SDS011;50516;52.272;5.136;2023-05-07T08:30:50;20.70;;;16.33;;
64199;SDS011;50516;52.272;5.136;2023-05-07T08:33:15;21.23;;;16.40;;
64199;SDS011;50516;52.272;5.136;2023-05-07T08:35:41;18.08;;;16.08;;
64199;SDS011;50516;52.272;5.136;2023-05-07T08:38:06;17.60;;;15.63;;
64199;SDS011;50516;52.272;5.136;2023-05-07T08:40:33;16.75;;;14.60;;
64199;SDS011;50516;52.272;5.136;2023-05-07T08:43:02;17.75;;;14.98;;
64199;SDS011;50516;52.272;5.136;2023-05-07T08:45:30;16.13;;;14.35;;
64199;SDS011;50516;52.272;5.136;2023-05-07T08:47:58;17.88;;;15.98;;
64199;SDS011;50516;52.272;5.136;2023-05-07T08:50:26;14.07;;;12.48;;
64199;SDS011;50516;52.272;5.136;2023-05-07T08:52:52;15.27;;;13.65;;
64199;SDS011;50516;52.272;5.136;2023-05-07T08:55:17;15.00;;;13.30;;
64199;SDS011;50516;52.272;5.136;2023-05-07T08:57:43;16.58;;;14.82;;
64199;SDS011;50516;52.272;5.136;2023-05-07T09:00:09;19.13;;;14.32;;
64199;SDS011;50516;52.272;5.136;2023-05-07T09:02:35;14.80;;;13.00;;
64199;SDS011;50516;52.272;5.136;2023-05-07T09:05:01;16.48;;;14.77;;
64199;SDS011;50516;52.272;5.136;2023-05-07T09:07:27;15.20;;;13.68;;
64199;SDS011;50516;52.272;5.136;2023-05-07T09:09:53;17.08;;;14.98;;
64199;SDS011;50516;52.272;5.136;2023-05-07T09:12:20;14.77;;;13.27;;
64199;SDS011;50516;52.272;5.136;2023-05-07T09:14:46;16.23;;;14.65;;
64199;SDS011;50516;52.272;5.136;2023-05-07T09:17:12;17.20;;;15.40;;
64199;SDS011;50516;52.272;5.136;2023-05-07T09:19:37;15.43;;;13.93;;
64199;SDS011;50516;52.272;5.136;2023-05-07T09:22:03;17.55;;;15.80;;
64199;SDS011;50516;52.272;5.136;2023-05-07T09:24:31;17.35;;;15.27;;
64199;SDS011;50516;52.272;5.136;2023-05-07T09:27:00;15.68;;;14.05;;
64199;SDS011;50516;52.272;5.136;2023-05-07T09:29:26;16.15;;;14.45;;
64199;SDS011;50516;52.272;5.136;2023-05-07T09:31:53;15.65;;;14.18;;
64199;SDS011;50516;52.272;5.136;2023-05-07T09:34:19;16.77;;;15.10;;
64199;SDS011;50516;52.272;5.136;2023-05-07T09:36:45;15.88;;;14.05;;
64199;SDS011;50516;52.272;5.136;2023-05-07T09:39:10;14.23;;;12.75;;
64199;SDS011;50516;52.272;5.136;2023-05-07T09:41:42;14.80;;;12.35;;
64199;SDS011;50516;52.272;5.136;2023-05-07T09:44:08;17.05;;;13.18;;
64199;SDS011;50516;52.272;5.136;2023-05-07T09:46:34;16.80;;;11.93;;
64199;SDS011;50516;52.272;5.136;2023-05-07T09:49:03;13.38;;;11.80;;
64199;SDS011;50516;52.272;5.136;2023-05-07T09:51:38;15.98;;;12.18;;
64199;SDS011;50516;52.272;5.136;2023-05-07T09:54:08;12.40;;;9.65;;
64199;SDS011;50516;52.272;5.136;2023-05-07T09:56:33;10.75;;;9.07;;
64199;SDS011;50516;52.272;5.136;2023-05-07T09:59:02;12.32;;;8.13;;
64199;SDS011;50516;52.272;5.136;2023-05-07T10:01:29;9.13;;;6.82;;
64199;SDS011;50516;52.272;5.136;2023-05-07T10:03:56;10.20;;;9.15;;
64199;SDS011;50516;52.272;5.136;2023-05-07T10:06:23;10.95;;;9.05;;
64199;SDS011;50516;52.272;5.136;2023-05-07T10:08:49;11.07;;;9.15;;
64199;SDS011;50516;52.272;5.136;2023-05-07T10:11:16;9.30;;;7.13;;
64199;SDS011;50516;52.272;5.136;2023-05-07T10:13:42;12.15;;;9.30;;
64199;SDS011;50516;52.272;5.136;2023-05-07T10:16:08;11.48;;;8.38;;
64199;SDS011;50516;52.272;5.136;2023-05-07T10:18:33;10.93;;;9.60;;
64199;SDS011;50516;52.272;5.136;2023-05-07T10:21:01;11.43;;;8.00;;
64199;SDS011;50516;52.272;5.136;2023-05-07T10:23:31;12.23;;;8.25;;
64199;SDS011;50516;52.272;5.136;2023-05-07T10:25:58;8.07;;;6.43;;
64199;SDS011;50516;52.272;5.136;2023-05-07T10:28:26;8.95;;;7.70;;
64199;SDS011;50516;52.272;5.136;2023-05-07T10:33:56;8.88;;;6.53;;
64199;SDS011;50516;52.272;5.136;2023-05-07T10:36:23;8.07;;;5.90;;
64199;SDS011;50516;52.272;5.136;2023-05-07T10:38:50;9.32;;;6.45;;
64199;SDS011;50516;52.272;5.136;2023-05-07T10:41:15;9.73;;;6.90;;
64199;SDS011;50516;52.272;5.136;2023-05-07T10:43:43;12.98;;;9.32;;
64199;SDS011;50516;52.272;5.136;2023-05-07T10:51:33;8.68;;;5.95;;
64199;SDS011;50516;52.272;5.136;2023-05-07T10:56:37;11.20;;;8.35;;
64199;SDS011;50516;52.272;5.136;2023-05-07T11:01:59;12.63;;;7.35;;
64199;SDS011;50516;52.272;5.136;2023-05-07T11:04:31;9.35;;;6.88;;
64199;SDS011;50516;52.272;5.136;2023-05-07T11:15:04;9.75;;;6.43;;
64199;SDS011;50516;52.272;5.136;2023-05-07T11:17:32;13.05;;;6.20;;
64199;SDS011;50516;52.272;5.136;2023-05-07T11:19:59;9.90;;;5.80;;
64199;SDS011;50516;52.272;5.136;2023-05-07T11:25:01;8.43;;;5.72;;
64199;SDS011;50516;52.272;5.136;2023-05-07T11:27:27;12.15;;;6.47;;
64199;SDS011;50516;52.272;5.136;2023-05-07T11:29:54;10.60;;;5.38;;
64199;SDS011;50516;52.272;5.136;2023-05-07T11:32:26;7.32;;;4.18;;
64199;SDS011;50516;52.272;5.136;2023-05-07T11:34:56;10.27;;;5.47;;
64199;SDS011;50516;52.272;5.136;2023-05-07T11:37:23;9.07;;;5.20;;
64199;SDS011;50516;52.272;5.136;2023-05-07T11:39:50;9.15;;;5.00;;
64199;SDS011;50516;52.272;5.136;2023-05-07T11:44:57;9.98;;;4.30;;
64199;SDS011;50516;52.272;5.136;2023-05-07T11:47:23;9.38;;;4.88;;
64199;SDS011;50516;52.272;5.136;2023-05-07T11:49:50;7.07;;;4.30;;
64199;SDS011;50516;52.272;5.136;2023-05-07T11:52:18;6.70;;;3.80;;
64199;SDS011;50516;52.272;5.136;2023-05-07T11:54:55;5.55;;;3.53;;
64199;SDS011;50516;52.272;5.136;2023-05-07T11:57:21;7.68;;;3.90;;
64199;SDS011;50516;52.272;5.136;2023-05-07T11:59:47;6.10;;;3.42;;
64199;SDS011;50516;52.272;5.136;2023-05-07T12:02:13;8.90;;;3.70;;
64199;SDS011;50516;52.272;5.136;2023-05-07T12:04:40;7.53;;;3.95;;
64199;SDS011;50516;52.272;5.136;2023-05-07T12:07:05;7.32;;;3.90;;
64199;SDS011;50516;52.272;5.136;2023-05-07T12:09:36;7.63;;;3.25;;
64199;SDS011;50516;52.272;5.136;2023-05-07T12:12:05;10.25;;;3.67;;
64199;SDS011;50516;52.272;5.136;2023-05-07T12:14:30;5.93;;;3.58;;
64199;SDS011;50516;52.272;5.136;2023-05-07T12:16:56;7.25;;;3.85;;
64199;SDS011;50516;52.272;5.136;2023-05-07T12:19:22;7.80;;;3.28;;
64199;SDS011;50516;52.272;5.136;2023-05-07T12:21:47;5.10;;;3.25;;
64199;SDS011;50516;52.272;5.136;2023-05-07T12:24:14;7.47;;;3.47;;
64199;SDS011;50516;52.272;5.136;2023-05-07T12:26:39;5.70;;;3.10;;
64199;SDS011;50516;52.272;5.136;2023-05-07T12:29:05;7.80;;;3.40;;
64199;SDS011;50516;52.272;5.136;2023-05-07T12:31:31;6.47;;;3.20;;
64199;SDS011;50516;52.272;5.136;2023-05-07T12:33:56;6.85;;;3.72;;
64199;SDS011;50516;52.272;5.136;2023-05-07T12:36:21;5.95;;;3.40;;
64199;SDS011;50516;52.272;5.136;2023-05-07T12:38:48;7.72;;;4.32;;
64199;SDS011;50516;52.272;5.136;2023-05-07T12:41:14;6.85;;;3.42;;
64199;SDS011;50516;52.272;5.136;2023-05-07T12:43:41;6.18;;;4.05;;
64199;SDS011;50516;52.272;5.136;2023-05-07T12:46:09;7.53;;;3.67;;
64199;SDS011;50516;52.272;5.136;2023-05-07T12:48:38;4.93;;;3.70;;
64199;SDS011;50516;52.272;5.136;2023-05-07T12:51:08;8.60;;;3.78;;
64199;SDS011;50516;52.272;5.136;2023-05-07T12:53:39;6.72;;;3.35;;
64199;SDS011;50516;52.272;5.136;2023-05-07T12:56:06;5.53;;;3.45;;
64199;SDS011;50516;52.272;5.136;2023-05-07T12:58:33;6.70;;;3.55;;
64199;SDS011;50516;52.272;5.136;2023-05-07T13:01:00;9.15;;;3.55;;
64199;SDS011;50516;52.272;5.136;2023-05-07T13:03:32;8.45;;;4.10;;
64199;SDS011;50516;52.272;5.136;2023-05-07T13:06:00;11.60;;;4.20;;
64199;SDS011;50516;52.272;5.136;2023-05-07T13:08:30;5.88;;;3.53;;
64199;SDS011;50516;52.272;5.136;2023-05-07T13:11:00;12.38;;;4.72;;
64199;SDS011;50516;52.272;5.136;2023-05-07T13:13:28;7.20;;;3.22;;
64199;SDS011;50516;52.272;5.136;2023-05-07T13:15:55;6.28;;;4.15;;
64199;SDS011;50516;52.272;5.136;2023-05-07T13:18:20;9.25;;;4.30;;
64199;SDS011;50516;52.272;5.136;2023-05-07T13:20:45;7.38;;;4.03;;
64199;SDS011;50516;52.272;5.136;2023-05-07T13:23:10;5.63;;;3.47;;
64199;SDS011;50516;52.272;5.136;2023-05-07T13:25:36;16.17;;;5.70;;
64199;SDS011;50516;52.272;5.136;2023-05-07T13:28:01;8.32;;;4.10;;
64199;SDS011;50516;52.272;5.136;2023-05-07T13:30:27;10.88;;;4.80;;
64199;SDS011;50516;52.272;5.136;2023-05-07T13:32:53;6.97;;;3.70;;
64199;SDS011;50516;52.272;5.136;2023-05-07T13:35:20;10.13;;;3.67;;
64199;SDS011;50516;52.272;5.136;2023-05-07T13:37:46;6.60;;;3.22;;
64199;SDS011;50516;52.272;5.136;2023-05-07T13:40:13;8.00;;;3.35;;
64199;SDS011;50516;52.272;5.136;2023-05-07T13:42:38;8.38;;;3.50;;
64199;SDS011;50516;52.272;5.136;2023-05-07T13:45:03;5.60;;;3.35;;
64199;SDS011;50516;52.272;5.136;2023-05-07T13:47:30;9.18;;;5.00;;
64199;SDS011;50516;52.272;5.136;2023-05-07T13:49:55;9.43;;;3.78;;
64199;SDS011;50516;52.272;5.136;2023-05-07T13:52:20;6.03;;;3.67;;
64199;SDS011;50516;52.272;5.136;2023-05-07T13:54:46;8.38;;;4.75;;
64199;SDS011;50516;52.272;5.136;2023-05-07T13:57:11;6.70;;;3.80;;
64199;SDS011;50516;52.272;5.136;2023-05-07T13:59:36;7.18;;;4.65;;
64199;SDS011;50516;52.272;5.136;2023-05-07T14:02:02;7.80;;;3.47;;
64199;SDS011;50516;52.272;5.136;2023-05-07T14:04:27;8.65;;;4.75;;
64199;SDS011;50516;52.272;5.136;2023-05-07T14:06:52;7.53;;;4.57;;
64199;SDS011;50516;52.272;5.136;2023-05-07T14:09:17;8.88;;;4.80;;
64199;SDS011;50516;52.272;5.136;2023-05-07T14:11:43;8.80;;;6.00;;
64199;SDS011;50516;52.272;5.136;2023-05-07T14:14:08;12.68;;;5.95;;
64199;SDS011;50516;52.272;5.136;2023-05-07T14:16:39;9.32;;;5.97;;
64199;SDS011;50516;52.272;5.136;2023-05-07T14:19:05;9.77;;;7.13;;
64199;SDS011;50516;52.272;5.136;2023-05-07T14:21:30;15.60;;;7.15;;
64199;SDS011;50516;52.272;5.136;2023-05-07T14:23:56;11.32;;;6.13;;
64199;SDS011;50516;52.272;5.136;2023-05-07T14:26:21;11.98;;;6.80;;
64199;SDS011;50516;52.272;5.136;2023-05-07T14:28:48;12.18;;;6.32;;
64199;SDS011;50516;52.272;5.136;2023-05-07T14:31:13;10.40;;;5.75;;
64199;SDS011;50516;52.272;5.136;2023-05-07T14:33:39;10.23;;;6.00;;
64199;SDS011;50516;52.272;5.136;2023-05-07T14:36:04;11.45;;;5.90;;
64199;SDS011;50516;52.272;5.136;2023-05-07T14:38:29;9.85;;;6.10;;
64199;SDS011;50516;52.272;5.136;2023-05-07T14:40:57;9.70;;;5.28;;
64199;SDS011;50516;52.272;5.136;2023-05-07T14:43:23;11.15;;;5.55;;
64199;SDS011;50516;52.272;5.136;2023-05-07T14:45:48;10.32;;;5.50;;
64199;SDS011;50516;52.272;5.136;2023-05-07T14:48:13;12.93;;;5.72;;